Latest Weather Observations for Maningrida Airport

IDD60801

Issued at 6:01 am CST Friday 24 February 2017 (issued every 30 minutes, with the page automatically refreshed every 10 minutes)

About weather observations | Map of weather stations | Latest weather observations for NT | Other Formats
Station Details ID: 014405 Name: MANINGRIDA AIRPORT Lat: -12.06 Lon: 134.23 Height: 28.1 m
Data from the previous 72 hours. | See also: Recent months at Maningrida Airport
Date/Time
CST
Temp
°C
App
Temp
°C
Dew
Point
°C
Rel
Hum
%
Delta-T
°C
Wind Press
QNH
hPa
Press
MSL
hPa
Rain since
9am
mm
Dir  Spd
km/h
Gust
km/h
Spd
kts
Gust
kts
24/06:00am 27.0 32.5 24.6 87 1.7 NE 4 2 2 1 1010.3 1010.2 -
24/05:30am 27.0 32.4 24.5 86 1.7 NNE 4 7 2 4 1010.1 1009.9 0.0
24/05:00am 27.6 32.5 24.6 84 2.1 NNE 7 13 4 7 1009.7 1009.5 0.0
24/04:30am 27.6 32.1 24.6 84 2.1 NNE 9 13 5 7 1009.6 1009.4 0.0
24/04:00am 27.9 32.7 24.5 82 2.4 N 7 11 4 6 1009.3 1009.1 0.0
24/03:30am 27.9 31.8 24.3 81 2.5 N 11 15 6 8 1009.3 1009.1 0.0
24/03:00am 28.1 32.2 24.5 81 2.5 NNW 11 15 6 8 1009.8 1009.6 0.0
24/02:30am 27.9 31.6 24.5 82 2.4 N 13 19 7 10 1009.4 1009.2 0.0
24/02:00am 28.1 32.0 24.3 80 2.6 N 11 17 6 9 1009.5 1009.3 0.0
24/01:30am 28.2 32.2 24.4 80 2.6 NNW 11 15 6 8 1009.9 1009.7 0.0
24/01:00am 28.3 31.9 24.3 79 2.8 N 13 20 7 11 1010.0 1009.8 0.0
24/12:30am 28.4 31.3 24.4 79 2.8 N 17 22 9 12 1010.0 1009.8 0.0
24/12:00am 28.4 31.6 24.4 79 2.8 N 15 19 8 10 1010.3 1010.1 0.0
 
Date/Time
CST
Temp
°C
App
Temp
°C
Dew
Point
°C
Rel
Hum
%
Delta-T
°C
Wind Press
QNH
hPa
Press
MSL
hPa
Rain since
9am
mm
Dir  Spd
km/h
Gust
km/h
Spd
kts
Gust
kts
23/11:30pm 28.5 31.8 24.5 79 2.8 NNE 15 20 8 11 1010.5 1010.3 0.0
23/11:00pm 28.7 31.7 24.0 76 3.3 N 15 19 8 10 1010.5 1010.3 0.0
23/10:30pm 28.6 32.1 24.2 77 3.1 NNE 13 17 7 9 1010.2 1010.0 0.0
23/10:00pm 28.7 32.1 24.0 76 3.3 N 13 19 7 10 1009.7 1009.5 0.0
23/09:30pm 28.7 31.3 24.0 76 3.3 N 17 20 9 11 1009.4 1009.2 0.0
23/09:00pm 28.7 31.5 24.3 77 3.1 N 17 24 9 13 1008.9 1008.7 0.0
23/08:30pm 28.7 31.5 24.3 77 3.1 N 17 24 9 13 1008.6 1008.4 0.0
23/08:00pm 28.8 31.3 24.4 77 3.1 NNE 19 24 10 13 1008.1 1007.9 0.0
23/07:30pm 28.9 32.2 24.5 77 3.1 NNE 15 20 8 11 1008.0 1007.8 0.0
23/07:00pm 29.1 32.0 24.4 76 3.3 NNE 17 20 9 11 1007.9 1007.7 0.0
23/06:30pm 29.4 32.6 24.9 77 3.2 NNE 17 20 9 11 1007.3 1007.1 0.0
23/06:00pm 29.6 32.3 24.7 75 3.4 NNE 19 24 10 13 1007.0 1006.8 0.0
23/05:30pm 30.2 33.0 25.0 73 3.7 NNE 19 28 10 15 1006.8 1006.6 0.0
23/05:00pm 30.2 32.3 24.1 70 4.2 NE 20 30 11 16 1006.5 1006.3 0.0
23/04:30pm 30.6 33.3 24.7 71 4.1 NNE 19 28 10 15 1006.7 1006.5 0.0
23/04:00pm 31.0 33.3 24.4 68 4.6 NNE 20 26 11 14 1006.9 1006.7 0.0
23/03:30pm 31.1 33.3 24.2 66 4.8 NNE 20 28 11 15 1006.9 1006.7 0.0
23/03:00pm 31.4 33.9 24.8 68 4.7 NNE 20 30 11 16 1007.2 1007.0 0.0
23/02:30pm 30.9 33.1 24.8 70 4.3 NNE 22 30 12 16 1007.6 1007.4 0.0
23/02:00pm 31.6 34.3 25.0 68 4.7 NNE 20 28 11 15 1007.8 1007.6 0.0
23/01:30pm 31.4 33.7 24.5 67 4.8 NNE 20 28 11 15 1008.0 1007.8 0.0
23/01:00pm 31.4 34.4 25.5 71 4.2 NNE 20 30 11 16 1008.2 1008.0 0.0
23/12:30pm 31.2 34.1 25.1 70 4.3 N 19 26 10 14 1008.5 1008.3 0.0
23/12:00pm 31.0 33.1 25.4 72 4.0 NNE 24 28 13 15 1008.9 1008.7 0.0
23/11:30am 31.4 34.7 25.7 71 4.1 N 19 24 10 13 1009.3 1009.1 0.0
23/11:00am 30.6 33.5 24.5 70 4.3 NNE 17 22 9 12 1009.5 1009.3 0.0
23/10:30am 30.3 33.4 25.4 75 3.5 N 19 24 10 13 1009.7 1009.5 0.0
23/10:00am 30.9 35.3 25.7 74 3.7 NE 13 17 7 9 1009.7 1009.5 0.0
23/09:30am 29.8 34.2 24.4 73 3.8 NNW 9 13 5 7 1009.8 1009.6 0.0
23/09:00am 29.3 34.1 24.4 75 3.4 N 7 13 4 7 1009.6 1009.4 0.0
23/08:30am 28.6 33.1 24.6 79 2.8 NW 9 13 5 7 1009.6 1009.4 0.0
23/08:00am 28.0 32.3 24.2 80 2.6 NW 9 13 5 7 1009.3 1009.1 0.0
23/07:30am 27.3 31.4 24.0 82 2.3 NW 9 13 5 7 1009.0 1008.8 0.0
23/07:00am 26.0 30.7 23.9 88 1.4 WNW 6 9 3 5 1008.9 1008.7 0.0
23/06:30am 25.7 31.4 23.7 89 1.4 CALM 0 0 0 0 1008.8 1008.6 0.0
23/06:00am 26.1 31.5 23.8 87 1.6 WNW 2 6 1 3 1008.6 1008.4 0.0
23/05:30am 26.5 30.7 23.2 82 2.3 NW 6 9 3 5 1008.4 1008.2 0.0
23/05:00am 26.9 30.6 23.2 80 2.5 NW 9 15 5 8 1008.4 1008.2 0.0
23/04:30am 27.0 30.3 22.6 77 3.0 NW 9 13 5 7 1008.1 1007.9 0.0
23/04:00am 27.2 30.4 22.4 75 3.2 NW 9 13 5 7 1007.7 1007.5 0.0
23/03:30am 27.4 30.6 23.0 77 3.0 NW 11 15 6 8 1007.7 1007.5 0.0
23/03:00am 27.3 31.4 23.3 79 2.7 NW 7 11 4 6 1007.6 1007.4 0.0
23/02:30am 27.0 31.3 23.7 82 2.3 NW 7 11 4 6 1008.0 1007.8 0.0
23/02:00am 27.1 32.2 24.7 87 1.7 WNW 6 11 3 6 1008.3 1008.1 0.0
23/01:30am 27.2 32.3 25.0 88 1.5 NNW 7 9 4 5 1008.3 1008.1 0.0
23/01:00am 27.4 33.2 25.2 88 1.5 NW 4 7 2 4 1008.5 1008.3 0.0
23/12:30am 27.7 33.1 25.5 88 1.6 NW 7 13 4 7 1008.7 1008.5 0.0
23/12:00am 27.8 33.2 25.4 87 1.7 NW 7 11 4 6 1009.0 1008.8 0.0
 
Date/Time
CST
Temp
°C
App
Temp
°C
Dew
Point
°C
Rel
Hum
%
Delta-T
°C
Wind Press
QNH
hPa
Press
MSL
hPa
Rain since
9am
mm
Dir  Spd
km/h
Gust
km/h
Spd
kts
Gust
kts
22/11:30pm 28.1 33.4 25.3 85 2.0 NW 7 13 4 7 1009.3 1009.1 0.0
22/11:00pm 28.2 32.9 25.0 83 2.2 WNW 9 15 5 8 1009.4 1009.2 0.0
22/10:30pm 28.4 33.3 24.6 80 2.7 WNW 7 11 4 6 1009.5 1009.3 0.0
22/10:00pm 28.9 32.8 24.2 76 3.3 NW 11 17 6 9 1009.3 1009.1 0.0
22/09:30pm 29.0 32.3 23.9 74 3.5 NNW 13 19 7 10 1009.1 1008.9 0.0
22/09:00pm 29.0 32.2 24.3 76 3.3 NNW 15 19 8 10 1008.8 1008.6 0.0
22/08:30pm 29.1 31.6 23.8 73 3.7 NNW 17 24 9 13 1008.7 1008.5 0.0
22/08:00pm 29.0 32.4 24.6 77 3.1 NW 15 22 8 12 1008.5 1008.3 0.0
22/07:30pm 29.0 32.9 25.4 81 2.5 NNW 15 20 8 11 1008.3 1008.1 0.0
22/07:00pm 29.3 32.3 25.3 79 2.8 NNW 19 26 10 14 1008.1 1007.9 0.0
22/06:30pm 29.7 32.5 25.2 77 3.2 N 20 28 11 15 1007.7 1007.5 0.0
22/06:00pm 30.3 32.3 25.1 73 3.7 NNW 24 28 13 15 1007.3 1007.1 0.0
22/05:30pm 31.0 33.9 26.0 74 3.6 N 22 32 12 17 1007.0 1006.8 0.0
22/05:00pm 31.3 32.8 24.9 69 4.5 NNW 26 33 14 18 1006.7 1006.5 0.0
22/04:30pm 31.5 32.0 23.3 61 5.7 N 26 33 14 18 1006.8 1006.6 0.0
22/04:00pm 31.1 31.7 23.5 64 5.3 NNW 26 33 14 18 1007.0 1006.8 0.0
22/03:30pm 32.0 32.2 22.7 58 6.4 N 26 32 14 17 1007.1 1006.9 0.0
22/03:00pm 31.9 31.8 22.3 56 6.6 N 26 32 14 17 1007.1 1006.9 0.0
22/02:30pm 32.3 33.3 23.5 59 6.1 N 24 32 13 17 1007.3 1007.1 0.0
22/02:00pm 32.6 33.8 23.8 59 6.1 N 24 32 13 17 1007.6 1007.4 0.0
22/01:30pm 32.8 35.6 25.3 64 5.3 N 20 28 11 15 1008.0 1007.8 0.0
22/01:00pm 32.2 35.2 25.5 67 4.8 N 20 26 11 14 1008.4 1008.2 0.0
22/12:30pm 32.1 34.3 23.9 62 5.7 N 19 26 10 14 1009.0 1008.8 0.0
22/12:00pm 32.4 34.8 23.6 59 6.1 NNW 17 24 9 13 1009.5 1009.3 0.0
22/11:30am 32.1 35.3 24.9 65 5.1 NNW 17 22 9 12 1009.8 1009.6 0.0
22/11:00am 31.7 34.0 22.7 59 6.2 NNW 15 20 8 11 1010.1 1009.9 0.0
22/10:30am 30.9 34.4 23.5 64 5.1 NW 11 17 6 9 1010.2 1010.0 0.0
22/10:00am 30.4 34.7 24.3 70 4.3 NW 9 17 5 9 1010.4 1010.2 0.0
22/09:30am 29.7 33.6 24.3 73 3.8 WNW 11 15 6 8 1010.8 1010.6 0.0
22/09:00am 29.2 33.3 25.2 79 2.8 NNW 13 19 7 10 1010.8 1010.6 0.0
22/08:30am 28.2 32.6 24.4 80 2.6 WNW 9 13 5 7 1010.8 1010.6 0.0
22/08:00am 27.3 31.7 24.4 84 2.0 NW 9 13 5 7 1010.2 1010.0 0.0
22/07:30am 26.4 31.0 24.1 87 1.6 NW 7 13 4 7 1010.1 1009.9 0.0
22/07:00am 25.3 30.7 23.9 92 1.0 WNW 2 6 1 3 1009.9 1009.7 0.0
22/06:30am 25.0 29.7 23.4 91 1.1 W 4 7 2 4 1009.6 1009.4 0.0
22/06:00am 25.1 29.4 23.3 90 1.2 W 6 7 3 4 1009.3 1009.1 0.0
22/05:30am 25.3 29.7 23.4 89 1.3 W 6 11 3 6 1009.1 1008.9 0.0
22/05:00am 25.3 29.4 23.2 88 1.4 W 7 9 4 5 1008.8 1008.6 0.0
22/04:30am 25.1 30.0 23.0 88 1.4 W 2 7 1 4 1008.6 1008.4 0.0
22/04:00am 25.1 29.8 22.6 86 1.7 W 2 6 1 3 1008.4 1008.2 0.0
22/03:30am 25.5 29.3 22.4 83 2.1 WSW 6 9 3 5 1008.2 1008.0 0.0
22/03:00am 26.0 29.6 22.3 80 2.5 WSW 7 11 4 6 1008.3 1008.1 0.0
22/02:30am 26.3 29.4 22.2 78 2.8 WSW 9 13 5 7 1008.4 1008.2 0.0
22/02:00am 26.6 29.7 22.2 77 3.0 SW 9 13 5 7 1008.5 1008.3 0.0
22/01:30am 27.0 30.5 22.2 75 3.2 WSW 7 13 4 7 1008.7 1008.5 0.0
22/01:00am 27.2 30.2 21.9 73 3.6 WSW 9 15 5 8 1008.8 1008.6 0.0
22/12:30am 27.6 29.6 21.6 70 4.0 W 13 24 7 13 1009.0 1008.8 0.0
22/12:00am 27.8 30.2 21.6 69 4.2 W 11 20 6 11 1009.1 1008.9 0.0
 
Date/Time
CST
Temp
°C
App
Temp
°C
Dew
Point
°C
Rel
Hum
%
Delta-T
°C
Wind Press
QNH
hPa
Press
MSL
hPa
Rain since
9am
mm
Dir  Spd
km/h
Gust
km/h
Spd
kts
Gust
kts
21/11:30pm 27.6 31.4 22.8 75 3.3 W 7 13 4 7 1009.2 1009.0 0.0
21/11:00pm 27.7 31.9 23.5 78 2.9 W 7 15 4 8 1009.3 1009.1 0.0
21/10:30pm 27.8 32.9 24.6 83 2.2 WNW 6 9 3 5 1009.2 1009.0 0.0
21/10:00pm 28.1 33.2 24.9 83 2.2 NW 7 11 4 6 1008.9 1008.7 0.0
21/09:30pm 28.2 33.4 24.8 82 2.4 NW 6 7 3 4 1008.7 1008.5 0.0
21/09:00pm 28.6 33.1 24.6 79 2.8 NW 9 17 5 9 1008.5 1008.3 0.0
21/08:30pm 28.9 32.6 24.5 77 3.1 NW 13 17 7 9 1008.4 1008.2 0.0
21/08:00pm 29.1 32.6 24.2 75 3.4 NW 13 19 7 10 1008.2 1008.0 0.0
21/07:30pm 29.1 32.1 24.0 74 3.5 NNW 15 20 8 11 1008.1 1007.9 0.0
21/07:00pm 29.2 32.2 24.7 77 3.1 NNW 17 20 9 11 1007.9 1007.7 0.0
21/06:30pm 29.8 33.1 25.1 76 3.3 NNW 17 22 9 12 1007.6 1007.4 0.0
21/06:00pm 30.0 33.2 24.9 74 3.6 NNW 17 24 9 13 1007.3 1007.1 0.0
21/05:30pm 30.6 33.1 24.7 71 4.1 N 20 28 11 15 1007.0 1006.8 0.0
21/05:00pm 30.6 31.5 23.3 65 5.0 N 24 30 13 16 1006.8 1006.6 0.0
21/04:30pm 30.6 32.4 23.5 66 4.9 N 20 26 11 14 1006.8 1006.6 0.0
21/04:00pm 31.3 33.4 24.7 68 4.6 N 22 30 12 16 1007.0 1006.8 0.0
21/03:30pm 31.8 33.2 23.6 62 5.7 NNW 22 28 12 15 1007.2 1007.0 0.0
21/03:00pm 32.2 34.4 24.3 63 5.5 N 20 28 11 15 1007.4 1007.2 0.0
21/02:30pm 31.7 34.3 24.6 66 5.0 N 19 24 10 13 1007.7 1007.5 0.0
21/02:00pm 31.5 34.4 25.1 69 4.5 N 19 24 10 13 1008.2 1008.0 0.0
21/01:30pm 30.8 32.6 23.5 65 5.1 N 20 26 11 14 1008.8 1008.6 0.0
21/01:00pm 32.0 34.3 24.1 63 5.5 N 19 28 10 15 1009.3 1009.1 0.0
21/12:30pm 31.1 32.7 23.2 63 5.4 N 20 26 11 14 1009.7 1009.5 0.0
21/12:00pm 30.9 32.7 23.3 64 5.2 N 19 22 10 12 1010.2 1010.0 0.0
21/11:30am 31.5 32.4 19.2 48 8.0 NNW 13 19 7 10 1010.3 1010.1 0.0
21/11:00am 31.4 32.7 18.4 46 8.4 NW 9 15 5 8 1010.6 1010.4 0.0
21/10:30am 31.2 32.7 18.9 48 8.0 WNW 9 13 5 7 1010.8 1010.6 0.0
21/10:00am 30.8 32.4 19.2 50 7.6 WSW 9 13 5 7 1011.0 1010.8 0.0
21/09:30am 29.9 31.3 18.7 51 7.2 WSW 9 17 5 9 1010.9 1010.7 0.0
21/09:00am 29.4 31.3 19.7 56 6.4 SW 9 15 5 8 1010.8 1010.6 -
21/08:30am 28.7 31.3 21.2 64 5.0 WSW 9 13 5 7 1010.5 1010.3 -
21/08:00am 27.7 31.4 22.2 72 3.7 WSW 6 11 3 6 1010.2 1010.0 -
21/07:30am 26.2 30.1 22.5 80 2.5 WSW 6 9 3 5 1009.7 1009.5 -
21/07:00am 25.0 29.5 23.6 92 1.0 SW 6 9 3 5 1009.2 1009.0 -
21/06:30am 24.7 29.1 23.5 93 0.8 SW 6 9 3 5 1008.9 1008.7 -

Other Formats:

Comma delimited format used in spreadsheet applications
http://www.bom.gov.au/fwo/IDD60801/IDD60801.95142.axf

JavaScript Object Notation format (JSON) in row-major order
http://www.bom.gov.au/fwo/IDD60801/IDD60801.95142.json